createdAt,value
2023-02-11T00:03:58.572Z,103290.09
2023-02-11T00:09:01.673Z,103287.53
2023-02-11T00:14:09.235Z,103289.28
2023-02-11T00:19:11.976Z,103294.50
2023-02-11T00:24:14.764Z,103299.81
2023-02-11T00:29:18.851Z,103297.13
2023-02-11T00:34:25.366Z,103294.47
2023-02-11T00:39:28.430Z,103292.81
2023-02-11T00:44:33.358Z,103279.84
2023-02-11T00:49:36.950Z,103263.38
2023-02-11T00:54:39.799Z,103262.53
2023-02-11T00:59:44.429Z,103249.44
2023-02-11T01:04:47.221Z,103258.09
2023-02-11T01:09:50.112Z,103271.91
2023-02-11T01:14:54.254Z,103283.22
2023-02-11T01:19:57.096Z,103279.81
2023-02-11T01:24:59.886Z,103279.81
2023-02-11T01:30:06.470Z,103279.50
2023-02-11T01:35:09.477Z,103268.75
2023-02-11T01:40:14.748Z,103276.13
2023-02-11T01:45:53.997Z,103267.00
2023-02-11T01:51:02.200Z,103268.28
2023-02-11T01:56:23.892Z,103277.38
2023-02-11T02:01:28.000Z,103280.50
2023-02-11T02:06:36.076Z,103270.66
2023-02-11T02:11:38.988Z,103272.94
2023-02-11T02:16:41.863Z,103268.50
2023-02-11T02:22:24.282Z,103261.50
2023-02-11T02:27:43.033Z,103256.75
2023-02-11T02:33:22.484Z,103254.84
2023-02-11T02:38:28.964Z,103245.28
2023-02-11T02:43:32.088Z,103234.44
2023-02-11T02:48:36.524Z,103215.56
2023-02-11T02:53:50.106Z,103209.56
2023-02-11T02:59:15.141Z,103200.72
2023-02-11T03:04:23.289Z,103191.34
2023-02-11T03:09:30.780Z,103169.56
2023-02-11T03:14:34.046Z,103168.16
2023-02-11T03:19:39.795Z,103152.47
2023-02-11T03:24:43.128Z,103140.09
2023-02-11T03:29:55.864Z,103121.47
2023-02-11T03:35:04.313Z,103128.94
2023-02-11T03:40:10.164Z,103130.16
2023-02-11T03:45:16.862Z,103128.13
2023-02-11T03:50:22.555Z,103124.50
2023-02-11T03:55:27.089Z,103127.56
2023-02-11T04:00:31.504Z,103129.03
2023-02-11T04:05:35.908Z,103123.69
2023-02-11T04:10:38.696Z,103111.72
2023-02-11T04:15:41.508Z,103096.78
2023-02-11T04:20:45.635Z,103091.50
2023-02-11T04:25:48.985Z,103092.44
2023-02-11T04:30:52.374Z,103087.31
2023-02-11T04:35:56.585Z,103083.84
2023-02-11T04:41:00.560Z,103090.72
2023-02-11T04:46:03.408Z,103093.69
2023-02-11T04:51:07.726Z,103087.75
2023-02-11T04:56:10.616Z,103112.34
2023-02-11T05:01:16.233Z,103127.25
2023-02-11T05:06:20.529Z,103129.00
2023-02-11T05:11:25.396Z,103122.00
2023-02-11T05:16:28.357Z,103120.22
2023-02-11T05:21:34.214Z,103086.63
2023-02-11T05:26:36.942Z,103127.91
2023-02-11T05:31:39.728Z,103121.78
2023-02-11T05:36:45.084Z,103121.69
2023-02-11T05:41:47.863Z,103120.00
2023-02-11T05:46:50.658Z,103121.69
2023-02-11T05:51:54.793Z,103127.66
2023-02-11T05:56:57.529Z,103111.13
2023-02-11T06:02:00.240Z,103110.25
2023-02-11T06:07:04.725Z,103107.97
2023-02-11T06:12:07.882Z,103104.69
2023-02-11T06:17:10.693Z,103104.75
2023-02-11T06:22:17.217Z,103111.66
2023-02-11T06:27:20.803Z,103083.78
2023-02-11T06:32:43.981Z,103093.34
2023-02-11T06:37:54.027Z,103101.97
2023-02-11T06:42:56.941Z,103101.91
2023-02-11T06:48:00.103Z,103097.53
2023-02-11T06:53:04.300Z,103093.25
2023-02-11T06:58:07.140Z,103095.72
2023-02-11T07:03:10.017Z,103099.16
2023-02-11T07:08:14.180Z,103112.94
2023-02-11T07:13:17.106Z,103115.50
2023-02-11T07:18:19.954Z,103117.09
2023-02-11T07:23:24.122Z,103124.84
2023-02-11T07:28:27.017Z,103108.56
2023-02-11T07:33:29.924Z,103103.63
2023-02-11T07:38:34.964Z,103112.63
2023-02-11T07:43:38.687Z,103114.72
2023-02-11T07:48:41.505Z,103125.28
2023-02-11T07:53:47.885Z,103119.44
2023-02-11T07:58:51.318Z,103119.66
2023-02-11T08:03:54.899Z,103115.63
2023-02-11T08:08:59.278Z,103115.75
2023-02-11T08:14:02.119Z,103116.75
2023-02-11T08:19:07.063Z,103125.81
2023-02-11T08:24:11.485Z,103115.72
2023-02-11T08:29:16.114Z,103116.00
2023-02-11T08:34:19.484Z,103123.28
2023-02-11T08:39:23.971Z,103125.41
2023-02-11T08:44:26.866Z,103121.25
2023-02-11T08:49:30.624Z,103118.88
2023-02-11T08:54:34.828Z,103120.03
2023-02-11T08:59:40.054Z,103129.91
2023-02-11T09:04:42.858Z,103131.06
2023-02-11T09:09:47.072Z,103131.41
2023-02-11T09:14:49.911Z,103142.81
2023-02-11T09:19:52.832Z,103149.94
2023-02-11T09:24:57.142Z,103157.03
2023-02-11T09:30:01.427Z,103165.88
2023-02-11T09:35:04.405Z,103185.03
2023-02-11T09:40:09.830Z,103199.03
2023-02-11T09:45:18.810Z,103209.44
2023-02-11T09:50:25.266Z,103219.88
2023-02-11T09:55:31.681Z,103246.63
2023-02-11T10:00:38.914Z,103277.50
2023-02-11T10:05:59.668Z,103276.81
2023-02-11T10:11:07.090Z,103297.06
2023-02-11T10:16:19.100Z,103264.03
2023-02-11T10:21:30.110Z,103305.31
2023-02-11T10:26:34.419Z,103329.09
2023-02-11T10:31:38.929Z,103337.22
2023-02-11T10:36:43.300Z,103343.97
2023-02-11T10:41:48.974Z,103337.84
2023-02-11T10:46:52.198Z,103341.56
2023-02-11T10:52:14.038Z,103345.28
2023-02-11T10:57:19.895Z,103350.59
2023-02-11T11:02:24.818Z,103364.78
2023-02-11T11:07:29.432Z,103385.22
2023-02-11T11:12:40.311Z,103386.22
2023-02-11T11:17:43.902Z,103376.00
2023-02-11T11:22:47.261Z,103380.66
2023-02-11T11:27:52.195Z,103378.84
2023-02-11T11:32:55.125Z,103387.81
2023-02-11T11:38:01.775Z,103398.47
2023-02-11T11:43:23.135Z,103396.84
2023-02-11T11:48:29.316Z,103393.38
2023-02-11T11:53:36.982Z,103407.28
2023-02-11T11:58:41.230Z,103398.56
2023-02-11T12:04:15.352Z,103389.91
2023-02-11T12:09:25.744Z,103394.03
2023-02-11T12:14:36.724Z,103394.22
2023-02-11T12:19:56.309Z,103380.38
2023-02-11T12:25:11.045Z,103408.31
2023-02-11T12:30:24.656Z,103394.13
2023-02-11T12:35:32.572Z,103398.47
2023-02-11T12:40:41.418Z,103401.31
2023-02-11T12:46:34.902Z,103405.88
2023-02-11T12:51:51.113Z,103402.41
2023-02-11T12:56:59.238Z,103405.00
2023-02-11T13:02:06.880Z,103419.78
2023-02-11T13:07:15.699Z,103409.31
2023-02-11T13:12:36.093Z,103396.09
2023-02-11T13:17:42.067Z,103396.25
2023-02-11T13:22:51.825Z,103397.22
2023-02-11T13:27:58.722Z,103393.66
2023-02-11T13:33:21.219Z,103396.09
2023-02-11T13:38:27.596Z,103397.72
2023-02-11T13:43:31.791Z,103400.34
2023-02-11T13:48:36.162Z,103396.81
2023-02-11T13:53:48.839Z,103399.41
2023-02-11T13:58:52.616Z,103395.84
2023-02-11T14:04:38.438Z,103403.75
2023-02-11T14:09:42.729Z,103410.50
2023-02-11T14:15:19.760Z,103396.59
2023-02-11T14:20:37.610Z,103404.25
2023-02-11T14:25:43.500Z,103398.06
2023-02-11T14:30:55.515Z,103407.69
2023-02-11T14:36:06.725Z,103402.38
2023-02-11T14:41:15.223Z,103410.97
2023-02-11T14:46:19.344Z,103415.31
2023-02-11T14:51:24.493Z,103413.44
2023-02-11T14:56:31.475Z,103422.84
2023-02-11T15:01:36.115Z,103428.03
2023-02-11T15:06:40.852Z,103428.66
2023-02-11T15:11:46.638Z,103427.72
2023-02-11T15:16:50.749Z,103424.13
2023-02-11T15:21:54.669Z,103437.00
2023-02-11T15:27:00.705Z,103450.88
2023-02-11T15:32:08.843Z,103450.66
2023-02-11T15:37:14.586Z,103440.06
2023-02-11T15:42:26.959Z,103446.97
2023-02-11T15:47:29.980Z,103449.25
2023-02-11T15:52:33.060Z,103458.56
2023-02-11T15:57:37.333Z,103452.16
2023-02-11T16:02:45.172Z,103455.56
2023-02-11T16:07:50.404Z,103460.47
2023-02-11T16:12:59.350Z,103463.91
2023-02-11T16:18:02.700Z,103467.94
2023-02-11T16:23:06.094Z,103468.66
2023-02-11T16:28:15.162Z,103478.03
2023-02-11T16:33:18.143Z,103481.38
2023-02-11T16:38:21.106Z,103475.13
2023-02-11T16:43:25.425Z,103477.56
2023-02-11T16:48:28.343Z,103487.72
2023-02-11T16:53:31.508Z,103488.50
2023-02-11T16:58:35.703Z,103489.31
2023-02-11T17:03:40.502Z,103482.97
2023-02-11T17:08:44.387Z,103482.06
2023-02-11T17:13:48.671Z,103483.72
2023-02-11T17:18:52.013Z,103483.56
2023-02-11T17:23:54.806Z,103489.53
2023-02-11T17:28:58.980Z,103495.63
2023-02-11T17:34:01.850Z,103486.94
2023-02-11T17:39:08.230Z,103491.22
2023-02-11T17:44:14.104Z,103488.53
2023-02-11T17:49:17.026Z,103489.34
2023-02-11T17:54:20.617Z,103489.34
2023-02-11T17:59:25.953Z,103498.06
2023-02-11T18:04:29.142Z,103497.94
2023-02-11T18:09:31.983Z,103499.66
2023-02-11T18:14:36.341Z,103504.00
2023-02-11T18:19:39.289Z,103509.09
2023-02-11T18:24:44.745Z,103510.69
2023-02-11T18:29:49.438Z,103524.56
2023-02-11T18:34:52.559Z,103515.88
2023-02-11T18:39:55.507Z,103509.75
2023-02-11T18:44:59.736Z,103514.94
2023-02-11T18:50:02.586Z,103509.69
2023-02-11T18:55:05.836Z,103520.88
2023-02-11T19:00:11.791Z,103519.94
2023-02-11T19:05:15.632Z,103521.72
2023-02-11T19:10:18.785Z,103524.22
2023-02-11T19:15:23.118Z,103511.16
2023-02-11T19:20:25.968Z,103528.50
2023-02-11T19:25:29.175Z,103523.19
2023-02-11T19:30:33.486Z,103526.41
2023-02-11T19:35:36.520Z,103533.22
2023-02-11T19:40:39.307Z,103527.97
2023-02-11T19:45:43.449Z,103533.22
2023-02-11T19:50:46.288Z,103540.16
2023-02-11T19:55:49.778Z,103546.16
2023-02-11T20:00:54.195Z,103545.31
2023-02-11T20:05:57.130Z,103549.63
2023-02-11T20:11:05.942Z,103549.63
2023-02-11T20:16:12.309Z,103547.00
2023-02-11T20:21:17.642Z,103546.03
2023-02-11T20:26:22.976Z,103556.47
2023-02-11T20:31:27.376Z,103566.88
2023-02-11T20:36:32.336Z,103565.16
2023-02-11T20:41:36.702Z,103563.34
2023-02-11T20:46:42.295Z,103571.03
2023-02-11T20:51:45.168Z,103568.25
2023-02-11T20:56:50.660Z,103562.78
2023-02-11T21:01:56.935Z,103573.56
2023-02-11T21:07:01.480Z,103580.91
2023-02-11T21:12:05.389Z,103578.53
2023-02-11T21:17:09.558Z,103596.66
2023-02-11T21:22:12.402Z,103603.25
2023-02-11T21:27:16.115Z,103610.59
2023-02-11T21:32:20.353Z,103611.00
2023-02-11T21:37:25.281Z,103623.38
2023-02-11T21:42:28.093Z,103621.19
2023-02-11T21:47:32.794Z,103637.22
2023-02-11T21:52:35.611Z,103631.66
2023-02-11T21:57:38.523Z,103641.66
2023-02-11T22:02:42.999Z,103652.53
2023-02-11T22:07:45.918Z,103635.75
2023-02-11T22:12:48.744Z,103639.06
2023-02-11T22:17:52.936Z,103635.63
2023-02-11T22:22:55.708Z,103630.44
2023-02-11T22:27:58.514Z,103632.81
2023-02-11T22:33:04.089Z,103627.47
2023-02-11T22:38:06.914Z,103629.81
2023-02-11T22:43:09.790Z,103622.88
2023-02-11T22:48:14.027Z,103620.06
2023-02-11T22:53:16.864Z,103620.66
2023-02-11T22:58:19.842Z,103624.78
2023-02-11T23:03:24.015Z,103634.88
2023-02-11T23:08:28.069Z,103644.34
2023-02-11T23:13:30.804Z,103639.88
2023-02-11T23:18:35.440Z,103653.59
2023-02-11T23:23:38.212Z,103644.59
2023-02-11T23:28:41.333Z,103654.22
2023-02-11T23:33:45.963Z,103652.78
2023-02-11T23:38:49.523Z,103652.59
2023-02-11T23:43:53.180Z,103659.28
2023-02-11T23:48:57.574Z,103647.69
2023-02-11T23:54:00.443Z,103665.16
2023-02-11T23:59:03.282Z,103663.38
